sensor_id;sensor_type;location;lat;lon;timestamp;temperature;humidity
5128;DHT22;2582;48.770;9.190;2022-12-18T00:01:36;-4.60;99.90
5128;DHT22;2582;48.770;9.190;2022-12-18T00:04:07;-4.70;99.90
5128;DHT22;2582;48.770;9.190;2022-12-18T00:06:34;-4.60;99.90
5128;DHT22;2582;48.770;9.190;2022-12-18T00:09:01;-4.60;99.90
5128;DHT22;2582;48.770;9.190;2022-12-18T00:11:29;-4.70;99.90
5128;DHT22;2582;48.770;9.190;2022-12-18T00:13:56;-4.70;99.90
5128;DHT22;2582;48.770;9.190;2022-12-18T00:16:24;-4.70;99.90
5128;DHT22;2582;48.770;9.190;2022-12-18T00:18:52;-4.70;99.90
5128;DHT22;2582;48.770;9.190;2022-12-18T00:21:19;-4.70;99.90
5128;DHT22;2582;48.770;9.190;2022-12-18T00:23:46;-4.60;99.90
5128;DHT22;2582;48.770;9.190;2022-12-18T00:26:18;-4.70;99.90
5128;DHT22;2582;48.770;9.190;2022-12-18T00:28:44;-4.60;99.90
5128;DHT22;2582;48.770;9.190;2022-12-18T00:31:15;-4.50;99.90
5128;DHT22;2582;48.770;9.190;2022-12-18T00:33:41;-4.50;99.90
5128;DHT22;2582;48.770;9.190;2022-12-18T00:36:12;-4.50;99.90
5128;DHT22;2582;48.770;9.190;2022-12-18T00:38:38;-4.50;99.90
5128;DHT22;2582;48.770;9.190;2022-12-18T00:41:04;-4.50;99.90
5128;DHT22;2582;48.770;9.190;2022-12-18T00:43:33;-4.50;99.90
5128;DHT22;2582;48.770;9.190;2022-12-18T00:45:59;-4.50;99.90
5128;DHT22;2582;48.770;9.190;2022-12-18T00:48:24;-4.60;99.90
5128;DHT22;2582;48.770;9.190;2022-12-18T00:50:50;-4.60;99.90
5128;DHT22;2582;48.770;9.190;2022-12-18T00:53:16;-4.60;99.90
5128;DHT22;2582;48.770;9.190;2022-12-18T00:55:43;-4.60;99.90
5128;DHT22;2582;48.770;9.190;2022-12-18T00:58:09;-4.60;99.90
5128;DHT22;2582;48.770;9.190;2022-12-18T01:00:36;-4.50;99.90
5128;DHT22;2582;48.770;9.190;2022-12-18T01:03:02;-4.60;99.90
5128;DHT22;2582;48.770;9.190;2022-12-18T01:05:27;-4.60;99.90
5128;DHT22;2582;48.770;9.190;2022-12-18T01:07:53;-4.70;99.90
5128;DHT22;2582;48.770;9.190;2022-12-18T01:10:19;-4.70;99.90
5128;DHT22;2582;48.770;9.190;2022-12-18T01:12:44;-4.70;99.90
5128;DHT22;2582;48.770;9.190;2022-12-18T01:15:11;-4.70;99.90
5128;DHT22;2582;48.770;9.190;2022-12-18T01:17:37;-5.00;99.90
5128;DHT22;2582;48.770;9.190;2022-12-18T01:20:03;-4.90;99.90
5128;DHT22;2582;48.770;9.190;2022-12-18T01:22:29;-4.70;99.90
5128;DHT22;2582;48.770;9.190;2022-12-18T01:24:54;-4.80;99.90
5128;DHT22;2582;48.770;9.190;2022-12-18T01:27:20;-4.70;99.90
5128;DHT22;2582;48.770;9.190;2022-12-18T01:29:45;-4.80;99.90
5128;DHT22;2582;48.770;9.190;2022-12-18T01:32:11;-4.90;99.90
5128;DHT22;2582;48.770;9.190;2022-12-18T01:34:38;-5.10;99.90
5128;DHT22;2582;48.770;9.190;2022-12-18T01:37:04;-5.10;99.90
5128;DHT22;2582;48.770;9.190;2022-12-18T01:39:30;-5.10;99.90
5128;DHT22;2582;48.770;9.190;2022-12-18T01:41:58;-5.20;99.90
5128;DHT22;2582;48.770;9.190;2022-12-18T01:47:32;-5.20;99.90
5128;DHT22;2582;48.770;9.190;2022-12-18T01:50:22;-5.00;99.90
5128;DHT22;2582;48.770;9.190;2022-12-18T01:52:55;-4.80;99.90
5128;DHT22;2582;48.770;9.190;2022-12-18T01:55:24;-4.70;99.90
5128;DHT22;2582;48.770;9.190;2022-12-18T01:57:56;-4.50;99.90
5128;DHT22;2582;48.770;9.190;2022-12-18T02:00:23;-4.40;99.90
5128;DHT22;2582;48.770;9.190;2022-12-18T02:02:50;-4.60;99.90
5128;DHT22;2582;48.770;9.190;2022-12-18T02:08:20;-4.40;99.90
5128;DHT22;2582;48.770;9.190;2022-12-18T02:11:05;-4.20;99.90
5128;DHT22;2582;48.770;9.190;2022-12-18T02:19:14;-4.20;99.90
5128;DHT22;2582;48.770;9.190;2022-12-18T02:27:39;-3.90;99.90
5128;DHT22;2582;48.770;9.190;2022-12-18T02:30:07;-4.00;99.90
5128;DHT22;2582;48.770;9.190;2022-12-18T02:32:46;-4.10;99.90
5128;DHT22;2582;48.770;9.190;2022-12-18T02:35:16;-4.20;99.90
5128;DHT22;2582;48.770;9.190;2022-12-18T02:37:43;-4.10;99.90
5128;DHT22;2582;48.770;9.190;2022-12-18T02:40:11;-4.10;99.90
5128;DHT22;2582;48.770;9.190;2022-12-18T02:42:37;-4.10;99.90
5128;DHT22;2582;48.770;9.190;2022-12-18T02:45:03;-4.10;99.90
5128;DHT22;2582;48.770;9.190;2022-12-18T02:47:32;-4.10;99.90
5128;DHT22;2582;48.770;9.190;2022-12-18T02:50:04;-4.00;99.90
5128;DHT22;2582;48.770;9.190;2022-12-18T02:56:21;-4.00;99.90
5128;DHT22;2582;48.770;9.190;2022-12-18T03:01:30;-4.20;99.90
5128;DHT22;2582;48.770;9.190;2022-12-18T03:04:04;-4.20;99.90
5128;DHT22;2582;48.770;9.190;2022-12-18T03:06:32;-4.30;99.90
5128;DHT22;2582;48.770;9.190;2022-12-18T03:09:03;-4.30;99.90
5128;DHT22;2582;48.770;9.190;2022-12-18T03:11:33;-4.30;99.90
5128;DHT22;2582;48.770;9.190;2022-12-18T03:14:20;-4.30;99.90
5128;DHT22;2582;48.770;9.190;2022-12-18T03:16:50;-4.40;99.90
5128;DHT22;2582;48.770;9.190;2022-12-18T03:19:20;-4.40;99.90
5128;DHT22;2582;48.770;9.190;2022-12-18T03:21:50;-4.40;99.90
5128;DHT22;2582;48.770;9.190;2022-12-18T03:24:17;-4.40;99.90
5128;DHT22;2582;48.770;9.190;2022-12-18T03:26:47;-4.40;99.90
5128;DHT22;2582;48.770;9.190;2022-12-18T03:29:19;-4.40;99.90
5128;DHT22;2582;48.770;9.190;2022-12-18T03:31:51;-4.50;99.90
5128;DHT22;2582;48.770;9.190;2022-12-18T03:34:26;-4.70;99.90
5128;DHT22;2582;48.770;9.190;2022-12-18T03:36:52;-4.70;99.90
5128;DHT22;2582;48.770;9.190;2022-12-18T03:39:18;-4.70;99.90
5128;DHT22;2582;48.770;9.190;2022-12-18T03:41:59;-4.80;99.90
5128;DHT22;2582;48.770;9.190;2022-12-18T03:44:28;-4.80;99.90
5128;DHT22;2582;48.770;9.190;2022-12-18T03:47:27;-5.10;99.90
5128;DHT22;2582;48.770;9.190;2022-12-18T03:50:12;-5.30;99.90
5128;DHT22;2582;48.770;9.190;2022-12-18T03:53:15;-5.30;99.90
5128;DHT22;2582;48.770;9.190;2022-12-18T03:55:43;-5.30;99.90
5128;DHT22;2582;48.770;9.190;2022-12-18T03:58:13;-5.50;99.90
5128;DHT22;2582;48.770;9.190;2022-12-18T04:00:41;-5.60;99.90
5128;DHT22;2582;48.770;9.190;2022-12-18T04:03:08;-5.70;99.90
5128;DHT22;2582;48.770;9.190;2022-12-18T04:05:35;-5.70;99.90
5128;DHT22;2582;48.770;9.190;2022-12-18T04:08:02;-5.70;99.90
5128;DHT22;2582;48.770;9.190;2022-12-18T04:10:28;-5.70;99.90
5128;DHT22;2582;48.770;9.190;2022-12-18T04:12:58;-5.60;99.90
5128;DHT22;2582;48.770;9.190;2022-12-18T04:15:24;-5.60;99.90
5128;DHT22;2582;48.770;9.190;2022-12-18T04:17:50;-5.70;99.90
5128;DHT22;2582;48.770;9.190;2022-12-18T04:20:16;-5.70;99.90
5128;DHT22;2582;48.770;9.190;2022-12-18T04:22:42;-5.70;99.90
5128;DHT22;2582;48.770;9.190;2022-12-18T04:25:12;-5.70;99.90
5128;DHT22;2582;48.770;9.190;2022-12-18T04:27:38;-5.80;99.90
5128;DHT22;2582;48.770;9.190;2022-12-18T04:30:04;-5.70;99.90
5128;DHT22;2582;48.770;9.190;2022-12-18T04:32:30;-5.70;99.90
5128;DHT22;2582;48.770;9.190;2022-12-18T04:34:56;-5.70;99.90
5128;DHT22;2582;48.770;9.190;2022-12-18T04:37:21;-5.70;99.90
5128;DHT22;2582;48.770;9.190;2022-12-18T04:39:47;-5.70;99.90
5128;DHT22;2582;48.770;9.190;2022-12-18T04:42:12;-5.80;99.90
5128;DHT22;2582;48.770;9.190;2022-12-18T04:44:38;-5.80;99.90
5128;DHT22;2582;48.770;9.190;2022-12-18T04:47:03;-5.90;99.90
5128;DHT22;2582;48.770;9.190;2022-12-18T04:49:29;-6.00;99.90
5128;DHT22;2582;48.770;9.190;2022-12-18T04:51:54;-6.20;99.90
5128;DHT22;2582;48.770;9.190;2022-12-18T04:54:20;-6.30;99.90
5128;DHT22;2582;48.770;9.190;2022-12-18T04:56:46;-6.20;99.90
5128;DHT22;2582;48.770;9.190;2022-12-18T04:59:11;-6.20;99.90
5128;DHT22;2582;48.770;9.190;2022-12-18T05:01:37;-6.10;99.90
5128;DHT22;2582;48.770;9.190;2022-12-18T05:04:03;-6.00;99.90
5128;DHT22;2582;48.770;9.190;2022-12-18T05:06:28;-6.00;99.90
5128;DHT22;2582;48.770;9.190;2022-12-18T05:08:54;-5.80;99.90
5128;DHT22;2582;48.770;9.190;2022-12-18T05:11:20;-5.80;99.90
5128;DHT22;2582;48.770;9.190;2022-12-18T05:13:49;-5.70;99.90
5128;DHT22;2582;48.770;9.190;2022-12-18T05:16:14;-5.70;99.90
5128;DHT22;2582;48.770;9.190;2022-12-18T05:18:40;-5.60;99.90
5128;DHT22;2582;48.770;9.190;2022-12-18T05:21:05;-5.70;99.90
5128;DHT22;2582;48.770;9.190;2022-12-18T05:23:35;-5.80;99.90
5128;DHT22;2582;48.770;9.190;2022-12-18T05:26:04;-5.90;99.90
5128;DHT22;2582;48.770;9.190;2022-12-18T05:28:32;-6.00;99.90
5128;DHT22;2582;48.770;9.190;2022-12-18T05:30:59;-6.00;99.90
5128;DHT22;2582;48.770;9.190;2022-12-18T05:33:27;-6.10;99.90
5128;DHT22;2582;48.770;9.190;2022-12-18T05:35:55;-6.10;99.90
5128;DHT22;2582;48.770;9.190;2022-12-18T05:38:22;-6.20;99.90
5128;DHT22;2582;48.770;9.190;2022-12-18T05:40:49;-6.30;99.90
5128;DHT22;2582;48.770;9.190;2022-12-18T05:43:14;-6.30;99.90
5128;DHT22;2582;48.770;9.190;2022-12-18T05:45:41;-6.30;99.90
5128;DHT22;2582;48.770;9.190;2022-12-18T05:48:07;-6.40;99.90
5128;DHT22;2582;48.770;9.190;2022-12-18T05:50:37;-6.50;99.90
5128;DHT22;2582;48.770;9.190;2022-12-18T05:53:04;-6.60;99.90
5128;DHT22;2582;48.770;9.190;2022-12-18T05:55:36;-6.70;99.90
5128;DHT22;2582;48.770;9.190;2022-12-18T05:58:03;-6.60;99.90
5128;DHT22;2582;48.770;9.190;2022-12-18T06:00:29;-6.60;99.90
5128;DHT22;2582;48.770;9.190;2022-12-18T06:02:55;-6.60;99.90
5128;DHT22;2582;48.770;9.190;2022-12-18T06:05:21;-6.70;99.90
5128;DHT22;2582;48.770;9.190;2022-12-18T06:07:46;-6.70;99.90
5128;DHT22;2582;48.770;9.190;2022-12-18T06:10:12;-6.70;99.90
5128;DHT22;2582;48.770;9.190;2022-12-18T06:12:37;-6.70;99.90
5128;DHT22;2582;48.770;9.190;2022-12-18T06:15:03;-6.70;99.90
5128;DHT22;2582;48.770;9.190;2022-12-18T06:17:30;-6.80;99.90
5128;DHT22;2582;48.770;9.190;2022-12-18T06:19:56;-6.90;99.90
5128;DHT22;2582;48.770;9.190;2022-12-18T06:22:22;-6.80;99.90
5128;DHT22;2582;48.770;9.190;2022-12-18T06:24:47;-6.80;99.90
5128;DHT22;2582;48.770;9.190;2022-12-18T06:27:13;-6.90;99.90
5128;DHT22;2582;48.770;9.190;2022-12-18T06:29:39;-6.90;99.90
5128;DHT22;2582;48.770;9.190;2022-12-18T06:32:05;-6.90;99.90
5128;DHT22;2582;48.770;9.190;2022-12-18T06:34:30;-6.90;99.90
5128;DHT22;2582;48.770;9.190;2022-12-18T06:36:56;-6.80;99.90
5128;DHT22;2582;48.770;9.190;2022-12-18T06:39:21;-6.80;99.90
5128;DHT22;2582;48.770;9.190;2022-12-18T06:41:47;-6.90;99.90
5128;DHT22;2582;48.770;9.190;2022-12-18T06:44:12;-7.00;99.90
5128;DHT22;2582;48.770;9.190;2022-12-18T06:46:38;-7.00;99.90
5128;DHT22;2582;48.770;9.190;2022-12-18T06:49:03;-7.00;99.90
5128;DHT22;2582;48.770;9.190;2022-12-18T06:51:29;-6.90;99.90
5128;DHT22;2582;48.770;9.190;2022-12-18T06:53:55;-6.80;99.90
5128;DHT22;2582;48.770;9.190;2022-12-18T06:56:21;-6.70;99.90
5128;DHT22;2582;48.770;9.190;2022-12-18T06:58:46;-6.80;99.90
5128;DHT22;2582;48.770;9.190;2022-12-18T07:01:13;-6.80;99.90
5128;DHT22;2582;48.770;9.190;2022-12-18T07:03:40;-6.80;99.90
5128;DHT22;2582;48.770;9.190;2022-12-18T07:06:05;-6.80;99.90
5128;DHT22;2582;48.770;9.190;2022-12-18T07:08:33;-6.80;99.90
5128;DHT22;2582;48.770;9.190;2022-12-18T07:10:59;-6.80;99.90
5128;DHT22;2582;48.770;9.190;2022-12-18T07:13:24;-6.80;99.90
5128;DHT22;2582;48.770;9.190;2022-12-18T07:15:50;-6.80;99.90
5128;DHT22;2582;48.770;9.190;2022-12-18T07:18:15;-6.70;99.90
5128;DHT22;2582;48.770;9.190;2022-12-18T07:20:41;-6.70;99.90
5128;DHT22;2582;48.770;9.190;2022-12-18T07:23:06;-6.70;99.90
5128;DHT22;2582;48.770;9.190;2022-12-18T07:25:35;-6.60;99.90
5128;DHT22;2582;48.770;9.190;2022-12-18T07:28:02;-6.60;99.90
5128;DHT22;2582;48.770;9.190;2022-12-18T07:30:27;-6.50;99.90
5128;DHT22;2582;48.770;9.190;2022-12-18T07:32:53;-6.40;99.90
5128;DHT22;2582;48.770;9.190;2022-12-18T07:35:18;-6.40;99.90
5128;DHT22;2582;48.770;9.190;2022-12-18T07:37:44;-6.40;99.90
5128;DHT22;2582;48.770;9.190;2022-12-18T07:40:11;-6.30;99.90
5128;DHT22;2582;48.770;9.190;2022-12-18T07:42:37;-6.30;99.90
5128;DHT22;2582;48.770;9.190;2022-12-18T07:45:03;-6.30;99.90
5128;DHT22;2582;48.770;9.190;2022-12-18T07:47:28;-6.20;99.90
5128;DHT22;2582;48.770;9.190;2022-12-18T07:49:54;-6.10;99.90
5128;DHT22;2582;48.770;9.190;2022-12-18T07:52:20;-6.00;99.90
5128;DHT22;2582;48.770;9.190;2022-12-18T07:54:46;-5.90;99.90
5128;DHT22;2582;48.770;9.190;2022-12-18T07:57:14;-5.90;99.90
5128;DHT22;2582;48.770;9.190;2022-12-18T07:59:39;-5.90;99.90
5128;DHT22;2582;48.770;9.190;2022-12-18T08:02:05;-5.80;99.90
5128;DHT22;2582;48.770;9.190;2022-12-18T08:04:30;-5.70;99.90
5128;DHT22;2582;48.770;9.190;2022-12-18T08:06:56;-5.60;99.90
5128;DHT22;2582;48.770;9.190;2022-12-18T08:09:22;-5.50;99.90
5128;DHT22;2582;48.770;9.190;2022-12-18T08:11:47;-5.50;99.90
5128;DHT22;2582;48.770;9.190;2022-12-18T08:14:13;-5.50;99.90
5128;DHT22;2582;48.770;9.190;2022-12-18T08:16:39;-5.50;99.90
5128;DHT22;2582;48.770;9.190;2022-12-18T08:19:05;-5.50;99.90
5128;DHT22;2582;48.770;9.190;2022-12-18T08:21:31;-5.50;99.90
5128;DHT22;2582;48.770;9.190;2022-12-18T08:23:59;-5.40;99.90
5128;DHT22;2582;48.770;9.190;2022-12-18T08:26:26;-5.40;99.90
5128;DHT22;2582;48.770;9.190;2022-12-18T08:28:54;-5.30;99.90
5128;DHT22;2582;48.770;9.190;2022-12-18T08:31:20;-5.30;99.90
5128;DHT22;2582;48.770;9.190;2022-12-18T08:33:48;-5.40;99.90
5128;DHT22;2582;48.770;9.190;2022-12-18T08:36:14;-5.30;99.90
5128;DHT22;2582;48.770;9.190;2022-12-18T08:38:40;-5.20;99.90
5128;DHT22;2582;48.770;9.190;2022-12-18T08:41:10;-5.10;99.90
5128;DHT22;2582;48.770;9.190;2022-12-18T08:43:36;-5.00;99.90
5128;DHT22;2582;48.770;9.190;2022-12-18T08:46:21;-5.00;99.90
5128;DHT22;2582;48.770;9.190;2022-12-18T08:48:48;-5.00;99.90
5128;DHT22;2582;48.770;9.190;2022-12-18T08:51:19;-4.90;99.90
5128;DHT22;2582;48.770;9.190;2022-12-18T08:53:45;-4.80;99.90
5128;DHT22;2582;48.770;9.190;2022-12-18T08:56:12;-4.80;99.90
5128;DHT22;2582;48.770;9.190;2022-12-18T08:58:37;-4.90;99.90
5128;DHT22;2582;48.770;9.190;2022-12-18T09:01:05;-4.90;99.90
5128;DHT22;2582;48.770;9.190;2022-12-18T09:03:31;-4.80;99.90
5128;DHT22;2582;48.770;9.190;2022-12-18T09:05:58;-4.70;99.90
5128;DHT22;2582;48.770;9.190;2022-12-18T09:08:23;-4.70;99.90
5128;DHT22;2582;48.770;9.190;2022-12-18T09:10:50;-4.60;99.90
5128;DHT22;2582;48.770;9.190;2022-12-18T09:13:16;-4.40;99.90
5128;DHT22;2582;48.770;9.190;2022-12-18T09:15:47;-4.30;99.90
5128;DHT22;2582;48.770;9.190;2022-12-18T09:18:14;-4.10;99.90
5128;DHT22;2582;48.770;9.190;2022-12-18T09:20:40;-4.00;99.90
5128;DHT22;2582;48.770;9.190;2022-12-18T09:23:06;-3.80;99.90
5128;DHT22;2582;48.770;9.190;2022-12-18T09:25:32;-3.90;99.90
5128;DHT22;2582;48.770;9.190;2022-12-18T09:27:59;-4.00;99.90
5128;DHT22;2582;48.770;9.190;2022-12-18T09:30:25;-3.90;99.90
5128;DHT22;2582;48.770;9.190;2022-12-18T09:32:55;-3.80;99.90
5128;DHT22;2582;48.770;9.190;2022-12-18T09:35:20;-3.60;99.90
5128;DHT22;2582;48.770;9.190;2022-12-18T09:37:46;-3.50;99.90
5128;DHT22;2582;48.770;9.190;2022-12-18T09:40:21;-3.30;99.90
5128;DHT22;2582;48.770;9.190;2022-12-18T09:42:59;-3.30;99.90
5128;DHT22;2582;48.770;9.190;2022-12-18T09:45:27;-3.20;99.90
5128;DHT22;2582;48.770;9.190;2022-12-18T09:47:54;-3.20;99.90
5128;DHT22;2582;48.770;9.190;2022-12-18T09:50:33;-3.00;99.90
5128;DHT22;2582;48.770;9.190;2022-12-18T09:53:05;-2.90;99.90
5128;DHT22;2582;48.770;9.190;2022-12-18T09:55:35;-2.70;99.90
5128;DHT22;2582;48.770;9.190;2022-12-18T09:58:10;-2.70;99.90
5128;DHT22;2582;48.770;9.190;2022-12-18T10:00:38;-2.50;99.90
5128;DHT22;2582;48.770;9.190;2022-12-18T10:03:10;-2.70;99.90
5128;DHT22;2582;48.770;9.190;2022-12-18T10:08:13;-2.90;99.90
5128;DHT22;2582;48.770;9.190;2022-12-18T10:10:52;-3.00;99.90
5128;DHT22;2582;48.770;9.190;2022-12-18T10:13:41;-2.80;99.90
5128;DHT22;2582;48.770;9.190;2022-12-18T10:18:39;-2.40;99.90
5128;DHT22;2582;48.770;9.190;2022-12-18T10:21:19;-2.40;99.90
5128;DHT22;2582;48.770;9.190;2022-12-18T10:24:24;-2.10;99.90
5128;DHT22;2582;48.770;9.190;2022-12-18T10:26:54;-1.70;99.90
5128;DHT22;2582;48.770;9.190;2022-12-18T10:29:22;-1.60;99.90
5128;DHT22;2582;48.770;9.190;2022-12-18T10:31:47;-1.40;99.90
5128;DHT22;2582;48.770;9.190;2022-12-18T10:34:13;-1.50;99.90
5128;DHT22;2582;48.770;9.190;2022-12-18T10:36:39;-1.60;99.90
5128;DHT22;2582;48.770;9.190;2022-12-18T10:39:18;-1.80;99.90
5128;DHT22;2582;48.770;9.190;2022-12-18T10:41:44;-1.50;99.90
5128;DHT22;2582;48.770;9.190;2022-12-18T10:44:22;-1.40;99.90
5128;DHT22;2582;48.770;9.190;2022-12-18T10:47:03;-1.20;99.90
5128;DHT22;2582;48.770;9.190;2022-12-18T10:49:31;-1.10;99.90
5128;DHT22;2582;48.770;9.190;2022-12-18T10:52:23;-1.10;99.90
5128;DHT22;2582;48.770;9.190;2022-12-18T10:54:55;-1.00;99.90
5128;DHT22;2582;48.770;9.190;2022-12-18T10:59:54;0.80;99.90
5128;DHT22;2582;48.770;9.190;2022-12-18T11:02:28;2.10;99.90
5128;DHT22;2582;48.770;9.190;2022-12-18T11:04:53;2.00;99.90
5128;DHT22;2582;48.770;9.190;2022-12-18T11:07:19;2.80;99.90
5128;DHT22;2582;48.770;9.190;2022-12-18T11:09:59;3.30;99.90
5128;DHT22;2582;48.770;9.190;2022-12-18T11:12:28;4.00;99.90
5128;DHT22;2582;48.770;9.190;2022-12-18T11:14:55;5.20;99.90
5128;DHT22;2582;48.770;9.190;2022-12-18T11:19:59;5.70;98.60
5128;DHT22;2582;48.770;9.190;2022-12-18T11:22:27;4.70;98.30
5128;DHT22;2582;48.770;9.190;2022-12-18T11:25:00;4.70;99.50
5128;DHT22;2582;48.770;9.190;2022-12-18T11:27:26;4.50;98.90
5128;DHT22;2582;48.770;9.190;2022-12-18T11:30:15;4.00;99.50
5128;DHT22;2582;48.770;9.190;2022-12-18T11:32:49;4.70;99.90
5128;DHT22;2582;48.770;9.190;2022-12-18T11:38:26;7.10;96.40
5128;DHT22;2582;48.770;9.190;2022-12-18T11:46:13;5.10;97.30
5128;DHT22;2582;48.770;9.190;2022-12-18T11:51:45;6.20;96.00
5128;DHT22;2582;48.770;9.190;2022-12-18T11:54:14;5.30;96.00
5128;DHT22;2582;48.770;9.190;2022-12-18T11:56:49;4.50;96.70
5128;DHT22;2582;48.770;9.190;2022-12-18T11:59:26;3.50;98.40
5128;DHT22;2582;48.770;9.190;2022-12-18T12:01:56;3.90;99.80
5128;DHT22;2582;48.770;9.190;2022-12-18T12:04:45;4.30;98.60
5128;DHT22;2582;48.770;9.190;2022-12-18T12:15:34;4.90;97.00
5128;DHT22;2582;48.770;9.190;2022-12-18T12:21:02;4.10;98.60
5128;DHT22;2582;48.770;9.190;2022-12-18T12:23:46;3.50;98.80
5128;DHT22;2582;48.770;9.190;2022-12-18T12:26:27;2.80;99.80
5128;DHT22;2582;48.770;9.190;2022-12-18T12:34:23;1.80;99.90
5128;DHT22;2582;48.770;9.190;2022-12-18T12:37:19;1.40;99.90
5128;DHT22;2582;48.770;9.190;2022-12-18T12:39:47;1.10;99.90
5128;DHT22;2582;48.770;9.190;2022-12-18T12:42:41;0.70;99.90
5128;DHT22;2582;48.770;9.190;2022-12-18T12:45:44;0.70;99.90
5128;DHT22;2582;48.770;9.190;2022-12-18T12:48:40;0.70;99.90
5128;DHT22;2582;48.770;9.190;2022-12-18T12:51:14;1.00;99.90
5128;DHT22;2582;48.770;9.190;2022-12-18T12:53:41;1.40;99.90
5128;DHT22;2582;48.770;9.190;2022-12-18T12:56:10;1.40;99.90
5128;DHT22;2582;48.770;9.190;2022-12-18T12:58:46;1.20;99.90
5128;DHT22;2582;48.770;9.190;2022-12-18T13:07:00;1.80;99.90
5128;DHT22;2582;48.770;9.190;2022-12-18T13:09:33;1.90;99.90
5128;DHT22;2582;48.770;9.190;2022-12-18T13:12:04;2.00;99.90
5128;DHT22;2582;48.770;9.190;2022-12-18T13:14:54;2.10;99.90
5128;DHT22;2582;48.770;9.190;2022-12-18T13:17:36;2.10;99.90
5128;DHT22;2582;48.770;9.190;2022-12-18T13:20:06;2.40;99.90
5128;DHT22;2582;48.770;9.190;2022-12-18T13:25:01;2.40;99.90
5128;DHT22;2582;48.770;9.190;2022-12-18T13:38:33;2.40;99.90
5128;DHT22;2582;48.770;9.190;2022-12-18T13:43:48;2.20;99.90
5128;DHT22;2582;48.770;9.190;2022-12-18T13:46:29;2.20;99.90
5128;DHT22;2582;48.770;9.190;2022-12-18T13:49:43;2.00;99.90
5128;DHT22;2582;48.770;9.190;2022-12-18T13:51:47;2.00;99.90
5128;DHT22;2582;48.770;9.190;2022-12-18T13:54:30;2.00;99.90
5128;DHT22;2582;48.770;9.190;2022-12-18T13:56:57;2.10;99.90
5128;DHT22;2582;48.770;9.190;2022-12-18T13:59:34;2.20;99.90
5128;DHT22;2582;48.770;9.190;2022-12-18T14:02:11;2.10;99.90
5128;DHT22;2582;48.770;9.190;2022-12-18T14:04:38;2.00;99.90
5128;DHT22;2582;48.770;9.190;2022-12-18T14:07:05;2.10;99.90
5128;DHT22;2582;48.770;9.190;2022-12-18T14:09:35;2.10;99.90
5128;DHT22;2582;48.770;9.190;2022-12-18T14:12:02;1.80;99.90
5128;DHT22;2582;48.770;9.190;2022-12-18T14:14:48;1.90;99.90
5128;DHT22;2582;48.770;9.190;2022-12-18T14:17:15;1.70;99.90
5128;DHT22;2582;48.770;9.190;2022-12-18T14:19:43;1.60;99.90
5128;DHT22;2582;48.770;9.190;2022-12-18T14:22:24;1.40;99.90
5128;DHT22;2582;48.770;9.190;2022-12-18T14:25:17;1.50;99.90
5128;DHT22;2582;48.770;9.190;2022-12-18T14:30:30;1.50;99.90
5128;DHT22;2582;48.770;9.190;2022-12-18T14:35:28;1.70;99.90
5128;DHT22;2582;48.770;9.190;2022-12-18T14:37:55;1.70;99.90
5128;DHT22;2582;48.770;9.190;2022-12-18T14:40:32;1.80;99.90
5128;DHT22;2582;48.770;9.190;2022-12-18T14:42:58;1.60;99.90
5128;DHT22;2582;48.770;9.190;2022-12-18T14:45:36;1.30;99.90
5128;DHT22;2582;48.770;9.190;2022-12-18T14:48:06;1.20;99.90
5128;DHT22;2582;48.770;9.190;2022-12-18T14:50:32;1.10;99.90
5128;DHT22;2582;48.770;9.190;2022-12-18T14:52:58;1.20;99.90
5128;DHT22;2582;48.770;9.190;2022-12-18T14:55:24;1.10;99.90
5128;DHT22;2582;48.770;9.190;2022-12-18T14:57:52;1.00;99.90
5128;DHT22;2582;48.770;9.190;2022-12-18T15:00:20;0.80;99.90
5128;DHT22;2582;48.770;9.190;2022-12-18T15:02:54;0.70;99.90
5128;DHT22;2582;48.770;9.190;2022-12-18T15:05:28;0.60;99.90
5128;DHT22;2582;48.770;9.190;2022-12-18T15:07:56;0.50;99.90
5128;DHT22;2582;48.770;9.190;2022-12-18T15:20:39;-0.20;99.90
5128;DHT22;2582;48.770;9.190;2022-12-18T15:25:54;-0.50;99.90
5128;DHT22;2582;48.770;9.190;2022-12-18T15:28:36;-0.50;99.90
5128;DHT22;2582;48.770;9.190;2022-12-18T15:31:22;-0.40;99.90
5128;DHT22;2582;48.770;9.190;2022-12-18T15:36:22;-0.50;99.90
5128;DHT22;2582;48.770;9.190;2022-12-18T15:38:52;-0.50;99.90
5128;DHT22;2582;48.770;9.190;2022-12-18T15:41:20;-0.60;99.90
5128;DHT22;2582;48.770;9.190;2022-12-18T15:43:48;-0.60;99.90
5128;DHT22;2582;48.770;9.190;2022-12-18T15:46:22;-0.60;99.90
5128;DHT22;2582;48.770;9.190;2022-12-18T15:48:55;-0.60;99.90
5128;DHT22;2582;48.770;9.190;2022-12-18T15:51:24;-0.60;99.90
5128;DHT22;2582;48.770;9.190;2022-12-18T15:53:54;-0.70;99.90
5128;DHT22;2582;48.770;9.190;2022-12-18T15:56:20;-0.70;99.90
5128;DHT22;2582;48.770;9.190;2022-12-18T15:59:10;-0.80;99.90
5128;DHT22;2582;48.770;9.190;2022-12-18T16:01:37;-0.90;99.90
5128;DHT22;2582;48.770;9.190;2022-12-18T16:04:03;-0.90;99.90
5128;DHT22;2582;48.770;9.190;2022-12-18T16:06:28;-0.90;99.90
5128;DHT22;2582;48.770;9.190;2022-12-18T16:08:54;-0.90;99.90
5128;DHT22;2582;48.770;9.190;2022-12-18T16:13:45;-1.00;99.90
5128;DHT22;2582;48.770;9.190;2022-12-18T16:16:10;-0.90;99.90
5128;DHT22;2582;48.770;9.190;2022-12-18T16:18:36;-0.90;99.90
5128;DHT22;2582;48.770;9.190;2022-12-18T16:21:01;-1.00;99.90
5128;DHT22;2582;48.770;9.190;2022-12-18T16:23:28;-1.00;99.90
5128;DHT22;2582;48.770;9.190;2022-12-18T16:25:54;-1.00;99.90
5128;DHT22;2582;48.770;9.190;2022-12-18T16:28:19;-1.00;99.90
5128;DHT22;2582;48.770;9.190;2022-12-18T16:30:45;-1.10;99.90
5128;DHT22;2582;48.770;9.190;2022-12-18T16:33:10;-1.20;99.90
5128;DHT22;2582;48.770;9.190;2022-12-18T16:35:36;-1.30;99.90
5128;DHT22;2582;48.770;9.190;2022-12-18T16:38:02;-1.30;99.90
5128;DHT22;2582;48.770;9.190;2022-12-18T16:40:28;-1.30;99.90
5128;DHT22;2582;48.770;9.190;2022-12-18T16:42:56;-1.20;99.90
5128;DHT22;2582;48.770;9.190;2022-12-18T16:45:22;-1.10;99.90
5128;DHT22;2582;48.770;9.190;2022-12-18T16:47:47;-1.00;99.90
5128;DHT22;2582;48.770;9.190;2022-12-18T16:50:13;-0.90;99.90
5128;DHT22;2582;48.770;9.190;2022-12-18T16:52:39;-1.00;99.90
5128;DHT22;2582;48.770;9.190;2022-12-18T16:55:05;-1.10;99.90
5128;DHT22;2582;48.770;9.190;2022-12-18T16:57:30;-1.00;99.90
5128;DHT22;2582;48.770;9.190;2022-12-18T16:59:56;-1.10;99.90
5128;DHT22;2582;48.770;9.190;2022-12-18T17:02:24;-1.00;99.90
5128;DHT22;2582;48.770;9.190;2022-12-18T17:04:53;-1.00;99.90
5128;DHT22;2582;48.770;9.190;2022-12-18T17:07:19;-1.00;99.90
5128;DHT22;2582;48.770;9.190;2022-12-18T17:09:44;-0.90;99.90
5128;DHT22;2582;48.770;9.190;2022-12-18T17:12:10;-0.80;99.90
5128;DHT22;2582;48.770;9.190;2022-12-18T17:14:35;-0.70;99.90
5128;DHT22;2582;48.770;9.190;2022-12-18T17:17:01;-0.60;99.90
5128;DHT22;2582;48.770;9.190;2022-12-18T17:19:28;-0.50;99.90
5128;DHT22;2582;48.770;9.190;2022-12-18T17:21:54;-0.30;99.90
5128;DHT22;2582;48.770;9.190;2022-12-18T17:24:20;-0.20;99.90
5128;DHT22;2582;48.770;9.190;2022-12-18T17:26:46;-0.10;99.90
5128;DHT22;2582;48.770;9.190;2022-12-18T17:29:17;0.00;99.90
5128;DHT22;2582;48.770;9.190;2022-12-18T17:31:44;0.10;99.90
5128;DHT22;2582;48.770;9.190;2022-12-18T17:34:11;0.00;99.90
5128;DHT22;2582;48.770;9.190;2022-12-18T17:36:37;-0.10;99.90
5128;DHT22;2582;48.770;9.190;2022-12-18T17:39:04;0.00;99.90
5128;DHT22;2582;48.770;9.190;2022-12-18T17:41:30;0.00;99.90
5128;DHT22;2582;48.770;9.190;2022-12-18T17:44:03;-0.10;99.90
5128;DHT22;2582;48.770;9.190;2022-12-18T17:46:31;-0.10;99.90
5128;DHT22;2582;48.770;9.190;2022-12-18T17:48:58;-0.20;99.90
5128;DHT22;2582;48.770;9.190;2022-12-18T17:51:24;-0.10;99.90
5128;DHT22;2582;48.770;9.190;2022-12-18T17:53:50;-0.10;99.90
5128;DHT22;2582;48.770;9.190;2022-12-18T17:56:18;0.00;99.90
5128;DHT22;2582;48.770;9.190;2022-12-18T17:58:44;-0.10;99.90
5128;DHT22;2582;48.770;9.190;2022-12-18T18:01:14;-0.20;99.90
5128;DHT22;2582;48.770;9.190;2022-12-18T18:03:40;-0.30;99.90
5128;DHT22;2582;48.770;9.190;2022-12-18T18:06:06;-0.20;99.90